AYPY/POM METAR and TAF weather

Enter ICAO airport designator
Station Type Date Time Source
AYPY METAR 2019/06/26 09:00 UTC NOAA

AYPY 260900Z 14010G20KT 5000M BKN008 BKN025 OVC040 28/24 Q1012 RMK


Station Type Date Time Source
AYPY Decoded METAR 2019/06/26 09:00 UTC NOAA

Moresby, Papua New Guinea (AYPY) 09-26S 147-13E 49M
Jun 26, 2019 - 05:00 AM EDT / 2019.06.26 0900 UTC
Wind: from the SE (140 degrees) at 12 MPH (10 KT) gusting to 23 MPH (20 KT):0
Sky conditions: overcast
Temperature: 82 F (28 C)
Dew Point: 75 F (24 C)
Relative Humidity: 78%
Pressure (altimeter): 29.88 in. Hg (1012 hPa)
ob: AYPY 260900Z 14010G20KT 5000M BKN008 BKN025 OVC040 28/24 Q1012 RMK
cycle: 9

Station Type Date Time Source
AYPY TAF 2019/06/26 12:45 UTC NOAA

TAF TAF AYPY 260630Z 2612/2712 17015KT 9999 -R ADZ Z SCT025 BKN130

Example: see airport list